Time;durP1;ratioP1;P1;durP2;ratioP2;P2;SDS_P1;SDS_P2;PMS_P1;PMS_P2;Temp;Humidity;BMP_temperature;BMP_pressure;BME280_temperature;BME280_humidity;BME280_pressure;Samples;Min_cycle;Max_cycle;Signal;HPM_P1;HPM_P2
2023/06/07 00:00:59;;;;;;;4.78;4.28;;;17.20;58.90;;;19.15;45.33;97718.22;5061583;28;20522;-60
2023/06/07 00:03:27;;;;;;;5.40;4.82;;;17.10;59.00;;;19.12;45.49;97712.44;5064688;28;20041;-60
2023/06/07 00:05:56;;;;;;;4.72;4.28;;;17.10;58.90;;;19.12;45.34;97715.13;5064056;28;20040;-60
2023/06/07 00:08:24;;;;;;;4.80;4.13;;;17.20;58.90;;;19.10;45.32;97709.13;5053121;28;20048;-61
2023/06/07 00:10:51;;;;;;;4.78;4.28;;;17.10;59.60;;;19.02;45.43;97713.72;5060657;28;20053;-60
2023/06/07 00:13:19;;;;;;;6.63;6.03;;;17.00;59.00;;;18.98;45.66;97707.09;5062955;28;20492;-60
2023/06/07 00:15:47;;;;;;;5.43;4.43;;;16.90;59.60;;;18.95;45.75;97704.81;5064069;28;20044;-60
2023/06/07 00:18:15;;;;;;;5.18;4.28;;;16.90;59.60;;;18.92;45.84;97699.84;5061637;28;20041;-61
2023/06/07 00:20:45;;;;;;;5.50;5.00;;;16.90;60.00;;;18.87;45.96;97705.88;5060716;28;20254;-61
2023/06/07 00:23:15;;;;;;;5.35;4.80;;;16.90;60.20;;;18.81;46.10;97703.22;5061851;28;20052;-61
2023/06/07 00:25:44;;;;;;;5.40;4.57;;;16.80;60.30;;;18.74;46.25;97702.38;5062499;28;20064;-60
2023/06/07 00:28:12;;;;;;;7.43;4.53;;;16.70;61.00;;;18.67;46.49;97708.59;5061651;28;20388;-61
2023/06/07 00:30:40;;;;;;;7.85;4.78;;;16.50;61.50;;;18.63;46.60;97706.53;5060463;28;20053;-61
2023/06/07 00:33:08;;;;;;;5.93;5.30;;;16.50;61.90;;;18.58;47.02;97699.09;5061788;28;20500;-60
2023/06/07 00:35:36;;;;;;;5.25;4.75;;;16.50;62.70;;;18.54;47.20;97702.41;5062258;28;20052;-60
2023/06/07 00:38:06;;;;;;;5.32;4.47;;;16.40;62.80;;;18.48;47.18;97710.31;5062031;28;20059;-60
2023/06/07 00:40:34;;;;;;;6.30;5.65;;;16.30;63.40;;;18.43;47.38;97701.19;5063671;28;20037;-60
2023/06/07 00:43:02;;;;;;;6.13;5.22;;;16.30;63.40;;;18.38;47.30;97707.22;5045284;28;20044;-61
2023/06/07 00:45:29;;;;;;;6.80;4.88;;;16.20;63.40;;;18.33;47.56;97707.00;5056145;28;20045;-61
2023/06/07 00:47:57;;;;;;;7.18;4.68;;;16.20;63.60;;;18.31;47.39;97709.09;5058691;28;20056;-61
2023/06/07 00:50:25;;;;;;;5.82;5.22;;;16.20;63.50;;;18.27;47.80;97710.53;5031071;28;20049;-61
2023/06/07 00:52:53;;;;;;;5.95;5.00;;;16.20;64.20;;;18.21;47.96;97708.69;5054857;28;20056;-60
2023/06/07 00:55:21;;;;;;;6.25;4.70;;;16.10;65.00;;;18.20;48.00;97713.22;5061241;28;20049;-61
2023/06/07 00:57:50;;;;;;;5.22;4.72;;;16.10;65.30;;;18.18;48.18;97712.59;5060869;28;20045;-61
2023/06/07 01:00:18;;;;;;;4.85;4.38;;;16.10;64.90;;;18.16;48.07;97709.28;5060016;28;20052;-61
2023/06/07 01:02:49;;;;;;;5.53;4.65;;;16.10;64.70;;;18.13;48.17;97707.03;5039193;28;20053;-61
2023/06/07 01:05:17;;;;;;;5.28;4.65;;;16.00;64.60;;;18.11;48.47;97706.41;5060883;28;20048;-61
2023/06/07 01:07:47;;;;;;;5.32;4.82;;;16.00;65.10;;;18.06;48.62;97704.31;5062276;28;20044;-61
2023/06/07 01:10:16;;;;;;;7.10;4.57;;;16.00;66.00;;;18.01;48.80;97714.91;5060122;28;20037;-61
2023/06/07 01:12:45;;;;;;;5.68;5.05;;;15.90;66.20;;;17.98;48.73;97714.50;5060113;28;20045;-61
2023/06/07 01:15:13;;;;;;;7.18;5.18;;;15.90;66.30;;;17.93;48.94;97709.69;5059210;28;20049;-61
2023/06/07 01:17:44;;;;;;;6.13;4.90;;;15.80;66.30;;;17.89;48.96;97706.63;5045262;28;20056;-61
2023/06/07 01:20:20;;;;;;;5.50;4.70;;;15.80;66.60;;;17.89;48.98;97708.47;5061991;28;20254;-61
2023/06/07 01:22:51;;;;;;;5.60;5.07;;;15.80;66.60;;;17.89;48.90;97712.00;5058433;28;20049;-61
2023/06/07 01:25:20;;;;;;;6.28;5.00;;;15.80;66.20;;;17.87;49.12;97705.16;5060069;28;20056;-61
2023/06/07 01:27:50;;;;;;;5.72;4.47;;;15.80;66.60;;;17.80;49.33;97704.31;5045636;28;20036;-61
2023/06/07 01:30:19;;;;;;;5.15;4.65;;;15.70;67.10;;;17.75;49.32;97706.78;5059953;28;20040;-61
2023/06/07 01:32:48;;;;;;;5.72;5.22;;;15.60;67.10;;;17.70;49.29;97704.72;5057873;28;20056;-61
2023/06/07 01:35:17;;;;;;;4.88;4.25;;;15.60;67.20;;;17.69;49.32;97705.72;5041135;28;20049;-61
2023/06/07 01:37:47;;;;;;;4.93;4.43;;;15.60;67.20;;;17.65;49.26;97705.31;5061869;28;20514;-61
2023/06/07 01:40:16;;;;;;;4.88;4.38;;;15.60;67.00;;;17.62;49.44;97705.72;5059840;28;20057;-61
2023/06/07 01:42:44;;;;;;;6.03;5.38;;;15.50;67.40;;;17.60;49.75;97693.50;5058390;28;20055;-62
2023/06/07 01:45:13;;;;;;;5.80;5.20;;;15.50;68.10;;;17.56;49.93;97703.84;5040163;28;20045;-61
2023/06/07 01:47:41;;;;;;;6.07;5.25;;;15.50;68.00;;;17.54;49.70;97695.13;5043441;28;20048;-62
2023/06/07 01:50:09;;;;;;;7.25;4.85;;;15.40;68.00;;;17.51;49.65;97699.06;5044412;28;20045;-62
2023/06/07 01:52:38;;;;;;;6.10;5.50;;;15.40;67.80;;;17.52;49.77;97689.97;5057409;28;20049;-61
2023/06/07 01:55:06;;;;;;;6.38;5.78;;;15.50;67.70;;;17.52;49.70;97697.19;5054250;28;20054;-61
2023/06/07 01:58:09;;;;;;;6.75;4.90;;;15.50;67.70;;;17.45;49.74;97699.06;5051219;28;20048;-61
2023/06/07 02:01:13;;;;;;;8.50;5.55;;;15.40;68.00;;;17.40;49.74;97696.97;5049988;28;20052;-61
2023/06/07 02:03:49;;;;;;;9.05;5.60;;;15.30;68.60;;;17.39;49.70;97697.16;5052421;28;20064;-61
2023/06/07 02:06:27;;;;;;;6.28;5.07;;;15.30;68.90;;;17.35;50.07;97698.63;5058849;28;20058;-61
2023/06/07 02:08:57;;;;;;;6.32;5.60;;;15.20;68.80;;;17.30;50.25;97688.47;5044951;28;20172;-61
2023/06/07 02:11:27;;;;;;;6.32;5.15;;;15.10;68.50;;;17.28;50.26;97694.06;5058202;28;20045;-61
2023/06/07 02:13:55;;;;;;;5.68;5.18;;;15.20;68.90;;;17.25;50.31;97691.78;5058085;28;20041;-61
2023/06/07 02:16:32;;;;;;;6.35;5.28;;;15.10;68.90;;;17.23;50.29;97688.44;5060650;28;20044;-61
2023/06/07 02:19:00;;;;;;;5.50;5.00;;;15.10;69.50;;;17.19;50.41;97686.38;5060996;28;20412;-61
2023/06/07 02:21:31;;;;;;;6.50;5.88;;;15.10;69.20;;;17.15;50.52;97677.03;5058128;28;20052;-61
2023/06/07 02:23:58;;;;;;;7.30;5.13;;;15.00;69.40;;;17.10;50.68;97680.34;5057535;28;20041;-61
2023/06/07 02:26:27;;;;;;;7.07;5.53;;;15.00;69.20;;;17.07;50.57;97676.19;5059600;28;20049;-61
2023/06/07 02:28:55;;;;;;;6.32;5.28;;;14.90;69.70;;;17.04;50.87;97683.81;5062325;28;20419;-61
2023/06/07 02:31:23;;;;;;;8.40;6.15;;;14.90;69.90;;;17.03;50.91;97683.00;5042987;28;20055;-61
2023/06/07 02:33:51;;;;;;;6.97;6.20;;;14.90;70.20;;;17.02;50.73;97683.19;5057461;28;20044;-61
2023/06/07 02:36:23;;;;;;;6.53;5.80;;;14.90;70.40;;;17.01;51.04;97677.00;5055687;28;20090;-61
2023/06/07 02:38:51;;;;;;;7.03;6.32;;;14.90;70.50;;;17.01;51.03;97686.94;5062500;28;20049;-61
2023/06/07 02:41:21;;;;;;;6.65;6.05;;;15.00;70.10;;;17.00;50.83;97691.50;5059437;28;20419;-60
2023/06/07 02:43:48;;;;;;;6.25;5.45;;;15.00;70.00;;;16.98;50.80;97690.00;5057480;28;20075;-61
2023/06/07 02:46:16;;;;;;;7.40;6.05;;;14.90;69.90;;;16.97;51.13;97694.56;5057903;28;20044;-60
2023/06/07 02:48:44;;;;;;;7.80;6.60;;;14.90;70.40;;;16.92;51.10;97688.94;5061712;28;20051;-62
2023/06/07 02:51:12;;;;;;;7.68;6.18;;;14.80;70.80;;;16.88;51.38;97687.69;5061057;28;20070;-61
2023/06/07 02:53:39;;;;;;;7.40;6.70;;;14.80;71.00;;;16.85;51.33;97693.50;5057333;28;20072;-61
2023/06/07 02:56:09;;;;;;;7.47;5.78;;;14.70;71.10;;;16.81;51.66;97689.50;5053578;28;20045;-61
2023/06/07 02:58:37;;;;;;;6.95;6.30;;;14.70;71.50;;;16.78;51.36;97696.09;5049019;28;20049;-62
2023/06/07 03:01:07;;;;;;;7.55;6.85;;;14.70;71.50;;;16.77;51.40;97689.09;5054128;28;20054;-61
2023/06/07 03:03:42;;;;;;;7.03;6.22;;;14.70;71.60;;;16.78;51.72;97689.91;5057503;28;20049;-60
2023/06/07 03:06:12;;;;;;;6.57;5.97;;;14.70;71.90;;;16.73;51.93;97691.34;5061399;28;20083;-60
2023/06/07 03:08:40;;;;;;;6.95;6.30;;;14.70;72.30;;;16.72;52.09;97703.09;5057569;28;20041;-60
2023/06/07 03:11:10;;;;;;;7.50;6.75;;;14.70;73.10;;;16.70;52.02;97694.41;5053845;28;20042;-61
2023/06/07 03:13:41;;;;;;;8.15;6.32;;;14.60;73.10;;;16.66;52.32;97695.84;5056972;28;20045;-60
2023/06/07 03:16:13;;;;;;;8.20;7.30;;;14.60;73.20;;;16.67;52.06;97700.19;5053433;28;20049;-61
2023/06/07 03:18:49;;;;;;;7.13;6.45;;;14.60;73.00;;;16.64;52.21;97697.91;5054321;28;20394;-60
2023/06/07 03:21:17;;;;;;;7.95;7.18;;;14.60;73.00;;;16.61;52.26;97702.84;5058119;28;20417;-61
2023/06/07 03:23:45;;;;;;;7.90;6.38;;;14.60;73.00;;;16.61;52.38;97700.16;5048246;28;20048;-60
2023/06/07 03:26:14;;;;;;;7.32;6.63;;;14.50;73.60;;;16.59;52.68;97704.88;5063643;28;20048;-61
2023/06/07 03:28:42;;;;;;;9.07;6.13;;;14.50;73.90;;;16.55;52.78;97701.75;5052849;28;20539;-60
2023/06/07 03:31:10;;;;;;;7.00;6.28;;;14.50;74.20;;;16.51;53.01;97700.50;5073863;28;20052;-61
2023/06/07 03:33:53;;;;;;;7.70;6.90;;;14.50;74.60;;;16.50;52.66;97698.88;5039657;28;20068;-61
2023/06/07 03:36:21;;;;;;;7.60;6.18;;;14.40;74.50;;;16.47;53.02;97699.25;5060979;28;20045;-61
2023/06/07 03:38:53;;;;;;;8.20;7.25;;;14.40;74.20;;;16.47;53.09;97700.06;5064041;28;20523;-61
2023/06/07 03:41:21;;;;;;;7.20;6.43;;;14.50;75.00;;;16.45;53.12;97698.63;5063297;28;20071;-61
2023/06/07 03:43:50;;;;;;;7.38;6.68;;;14.40;74.80;;;16.43;53.18;97703.34;5060898;28;20416;-61
2023/06/07 03:46:18;;;;;;;10.27;6.93;;;14.40;75.00;;;16.42;53.30;97704.38;5054344;28;20061;-61
2023/06/07 03:48:45;;;;;;;7.95;7.15;;;14.40;75.20;;;16.40;53.22;97701.06;5063509;28;20046;-60
2023/06/07 03:51:15;;;;;;;7.75;6.65;;;14.30;74.80;;;16.36;53.41;97697.09;5063799;28;20500;-61
2023/06/07 03:53:43;;;;;;;9.48;7.28;;;14.30;75.60;;;16.35;53.67;97704.34;5053821;28;20037;-61
2023/06/07 03:56:11;;;;;;;9.48;7.43;;;14.30;76.20;;;16.34;53.66;97694.59;5059853;28;20064;-61
2023/06/07 03:58:39;;;;;;;8.50;7.32;;;14.30;76.50;;;16.36;53.72;97699.78;5062825;28;20432;-61
2023/06/07 04:01:11;;;;;;;6.60;5.90;;;14.40;76.40;;;16.39;53.86;97694.84;5063822;28;20496;-61
2023/06/07 04:03:39;;;;;;;7.93;7.13;;;14.40;76.50;;;16.44;53.75;97705.84;5060454;28;20060;-60
2023/06/07 04:06:08;;;;;;;7.68;6.97;;;14.50;76.10;;;16.46;53.37;97702.94;5059733;28;20420;-60
2023/06/07 04:08:38;;;;;;;7.90;7.10;;;14.50;75.70;;;16.50;53.59;97705.06;5051252;28;20048;-61
2023/06/07 04:11:06;;;;;;;8.93;7.63;;;14.60;75.60;;;16.51;53.64;97708.56;5060125;28;20414;-61
2023/06/07 04:13:33;;;;;;;7.30;6.57;;;14.50;75.40;;;16.50;53.79;97699.69;5063389;28;20049;-61
2023/06/07 04:16:01;;;;;;;7.43;6.70;;;14.60;75.60;;;16.50;53.68;97698.88;5062762;28;20041;-62
2023/06/07 04:18:29;;;;;;;7.88;7.07;;;14.60;75.60;;;16.55;53.99;97699.06;5061786;28;20071;-61
2023/06/07 04:20:57;;;;;;;8.57;7.25;;;14.70;75.90;;;16.59;53.87;97696.81;5059762;28;20051;-62
2023/06/07 04:23:25;;;;;;;7.43;6.75;;;14.80;75.40;;;16.63;53.83;97701.59;5061755;28;20036;-62
2023/06/07 04:25:55;;;;;;;9.63;6.88;;;14.80;75.10;;;16.69;53.61;97699.97;5062276;28;20424;-61
2023/06/07 04:28:24;;;;;;;8.93;8.02;;;14.90;75.50;;;16.75;53.77;97707.28;5062587;28;20048;-60
2023/06/07 04:30:57;;;;;;;7.95;7.13;;;14.90;74.30;;;16.78;53.90;97706.03;5059062;28;20041;-60
2023/06/07 04:33:27;;;;;;;9.30;8.20;;;15.00;75.30;;;16.80;54.02;97707.47;5061216;28;20052;-59
2023/06/07 04:35:57;;;;;;;9.02;8.13;;;15.00;75.50;;;16.83;53.93;97703.63;5062384;28;20041;-59
2023/06/07 04:38:25;;;;;;;9.75;8.20;;;15.10;75.60;;;16.85;54.15;97705.06;5062033;28;20044;-60
2023/06/07 04:41:00;;;;;;;17.83;9.10;;;15.10;75.80;;;16.88;54.35;97703.84;5058899;28;20056;-59
2023/06/07 04:43:37;;;;;;;8.82;7.90;;;15.10;75.70;;;16.91;54.33;97701.56;5058783;28;20053;-60
2023/06/07 04:46:09;;;;;;;10.45;7.85;;;15.20;75.70;;;16.96;54.29;97706.34;5061798;28;20049;-59
2023/06/07 04:48:40;;;;;;;8.93;8.02;;;15.30;75.60;;;17.00;54.39;97704.94;5059850;28;20040;-59
2023/06/07 04:51:08;;;;;;;9.85;7.72;;;15.30;75.50;;;17.04;54.20;97702.66;5058939;28;20052;-59
2023/06/07 04:53:43;;;;;;;8.25;7.50;;;15.40;75.10;;;17.05;54.61;97704.31;5061776;28;20409;-59
2023/06/07 04:56:14;;;;;;;8.15;7.43;;;15.50;75.00;;;17.02;54.66;97708.25;5061865;28;20049;-60
2023/06/07 04:58:43;;;;;;;8.35;7.47;;;15.60;74.50;;;17.02;54.63;97708.25;5059523;28;20045;-60
2023/06/07 05:01:15;;;;;;;7.97;7.20;;;15.60;74.80;;;17.02;54.67;97704.72;5043541;28;20049;-60
2023/06/07 05:03:43;;;;;;;8.30;7.53;;;15.50;75.40;;;17.06;54.72;97704.13;5061383;28;20056;-60
2023/06/07 05:06:18;;;;;;;8.88;7.97;;;15.50;75.70;;;17.13;54.73;97715.72;5061265;28;20508;-60
2023/06/07 05:08:50;;;;;;;10.43;8.05;;;15.50;75.70;;;17.19;54.80;97708.72;5058899;28;20044;-60
2023/06/07 05:11:18;;;;;;;9.38;8.20;;;15.60;75.70;;;17.24;54.64;97716.19;5065924;28;20049;-60
2023/06/07 05:13:46;;;;;;;8.00;7.20;;;15.60;75.50;;;17.27;54.98;97724.69;5060539;28;20037;-61
2023/06/07 05:16:16;;;;;;;10.95;7.47;;;15.60;75.40;;;17.30;54.82;97724.28;5038250;28;20044;-60
2023/06/07 05:18:49;;;;;;;8.75;7.20;;;15.70;75.40;;;17.34;54.70;97726.56;5060120;28;20053;-58
2023/06/07 05:21:18;;;;;;;12.60;7.80;;;15.70;75.20;;;17.38;54.50;97725.13;5063443;28;20040;-59
2023/06/07 05:23:46;;;;;;;9.48;6.95;;;15.80;75.20;;;17.42;54.54;97729.06;5039209;28;20044;-59
2023/06/07 05:26:15;;;;;;;11.50;8.52;;;15.80;75.10;;;17.42;54.55;97726.38;5061040;28;20056;-60
2023/06/07 05:28:42;;;;;;;8.75;7.43;;;15.80;75.30;;;17.45;54.38;97726.81;5058881;28;20041;-60
2023/06/07 05:31:11;;;;;;;9.38;7.30;;;15.80;75.20;;;17.48;54.58;97729.06;5038238;28;20045;-60
2023/06/07 05:33:40;;;;;;;8.82;7.82;;;15.80;75.10;;;17.51;54.41;97731.38;5057013;28;20045;-60
2023/06/07 05:36:10;;;;;;;9.48;7.30;;;15.80;75.10;;;17.55;54.46;97726.41;5060670;28;20041;-59
2023/06/07 05:38:39;;;;;;;12.57;7.97;;;15.80;75.20;;;17.58;54.40;97730.56;5059446;28;20053;-60
2023/06/07 05:41:07;;;;;;;9.45;7.40;;;15.90;75.40;;;17.61;54.38;97735.53;5061455;28;20295;-58
2023/06/07 05:43:36;;;;;;;9.02;7.05;;;16.00;75.10;;;17.63;54.27;97737.00;5059467;28;20048;-60
2023/06/07 05:46:03;;;;;;;10.63;8.20;;;15.90;74.70;;;17.66;54.26;97739.28;5057780;28;20048;-60
2023/06/07 05:48:31;;;;;;;13.90;8.18;;;16.00;74.70;;;17.70;54.22;97731.63;5054817;28;20049;-60
2023/06/07 05:50:59;;;;;;;12.05;8.10;;;16.00;74.50;;;17.73;54.33;97731.19;5061544;28;20051;-59
2023/06/07 05:53:27;;;;;;;10.98;8.50;;;16.10;74.50;;;17.74;54.53;97730.19;5061800;28;20071;-60
2023/06/07 05:55:55;;;;;;;11.48;8.48;;;16.10;74.50;;;17.78;54.37;97731.44;5050536;28;20056;-59
2023/06/07 05:58:23;;;;;;;11.88;8.02;;;16.20;74.30;;;17.84;54.30;97721.72;5059331;28;20033;-59
2023/06/07 06:00:51;;;;;;;13.48;7.90;;;16.20;74.10;;;17.86;54.38;97723.19;5062183;28;20041;-59
2023/06/07 06:03:20;;;;;;;8.32;6.82;;;16.30;74.10;;;17.89;54.20;97728.16;5062420;28;20048;-58
2023/06/07 06:05:47;;;;;;;8.20;7.05;;;16.30;73.90;;;17.86;54.52;97723.19;5059481;28;20048;-58
2023/06/07 06:08:16;;;;;;;9.40;6.72;;;16.40;73.60;;;17.84;54.59;97725.25;5059322;28;20045;-59
2023/06/07 06:10:44;;;;;;;9.25;7.47;;;16.50;73.50;;;17.90;54.69;97718.22;5059694;28;20052;-59
2023/06/07 06:13:12;;;;;;;8.30;7.47;;;16.50;73.50;;;17.97;54.58;97712.81;5063026;28;20063;-59
2023/06/07 06:15:40;;;;;;;8.38;7.15;;;16.60;73.40;;;18.04;54.63;97724.44;5060747;28;20047;-58
2023/06/07 06:18:07;;;;;;;8.65;7.32;;;16.60;73.30;;;18.12;54.34;97726.09;5059253;28;20033;-59
2023/06/07 06:20:36;;;;;;;13.85;7.75;;;16.70;73.10;;;18.17;54.26;97727.13;5058453;28;20416;-59
2023/06/07 06:23:04;;;;;;;10.50;7.28;;;16.70;73.20;;;18.23;54.30;97730.84;5062456;28;20045;-59
2023/06/07 06:25:32;;;;;;;8.32;7.57;;;16.70;73.20;;;18.27;54.18;97732.91;5061631;28;20056;-59
2023/06/07 06:27:59;;;;;;;7.60;6.88;;;16.80;72.80;;;18.30;54.13;97731.69;5058535;28;20420;-59
2023/06/07 06:30:27;;;;;;;7.53;6.80;;;16.80;72.90;;;18.36;54.08;97724.63;5058591;28;20060;-58
2023/06/07 06:32:55;;;;;;;9.30;7.25;;;16.90;72.80;;;18.41;54.05;97720.25;5062199;28;20048;-59
2023/06/07 06:35:23;;;;;;;9.48;7.70;;;17.00;72.60;;;18.45;54.07;97718.78;5061688;28;20064;-59
2023/06/07 06:37:50;;;;;;;10.93;8.05;;;17.00;72.20;;;18.41;54.09;97724.81;5058417;28;20044;-59
2023/06/07 06:40:22;;;;;;;8.45;6.72;;;17.10;72.00;;;18.42;54.18;97721.94;5057737;28;20044;-60
2023/06/07 06:42:49;;;;;;;8.27;7.53;;;17.20;72.10;;;18.49;54.20;97725.44;5061827;28;20306;-60
2023/06/07 06:45:30;;;;;;;8.95;7.13;;;17.20;71.80;;;18.58;54.18;97719.81;5059300;28;20516;-60
2023/06/07 06:47:58;;;;;;;9.70;6.60;;;17.30;71.90;;;18.57;54.13;97724.41;5059372;28;20048;-60
2023/06/07 06:50:28;;;;;;;7.57;6.88;;;17.30;71.60;;;18.54;54.24;97729.38;5062328;28;20043;-60
2023/06/07 06:53:02;;;;;;;7.40;6.72;;;17.30;71.80;;;18.57;54.45;97727.09;5050061;28;20492;-60
2023/06/07 06:55:30;;;;;;;7.80;7.05;;;17.40;71.80;;;18.64;54.27;97730.59;5056371;28;20056;-60
2023/06/07 06:57:58;;;;;;;9.70;7.22;;;17.40;71.80;;;18.73;54.36;97735.75;5027334;28;20045;-60
2023/06/07 07:00:25;;;;;;;7.90;6.82;;;17.50;71.50;;;18.83;54.07;97728.09;5042118;28;20055;-60
2023/06/07 07:02:53;;;;;;;9.70;8.70;;;17.60;71.40;;;18.89;53.79;97738.84;5035535;28;20417;-59
2023/06/07 07:05:21;;;;;;;10.45;8.10;;;17.60;71.20;;;18.92;53.93;97743.03;5041694;28;20075;-59
2023/06/07 07:07:49;;;;;;;9.10;8.15;;;17.60;72.20;;;18.93;54.06;97743.84;5038164;28;20468;-60
2023/06/07 07:10:18;;;;;;;7.72;7.03;;;17.60;71.20;;;18.97;53.76;97743.19;5034855;28;20062;-60
2023/06/07 07:12:46;;;;;;;8.90;6.55;;;17.70;71.20;;;19.01;53.81;97740.91;5039904;28;20049;-60
2023/06/07 07:15:14;;;;;;;8.02;6.70;;;17.70;70.80;;;19.06;53.91;97739.22;5047595;28;20459;-59
2023/06/07 07:17:47;;;;;;;9.35;6.43;;;17.80;70.80;;;19.14;53.67;97737.34;5040118;28;20044;-61
2023/06/07 07:20:16;;;;;;;7.07;5.93;;;17.90;70.60;;;19.23;53.50;97738.72;5041119;28;20056;-60
2023/06/07 07:22:46;;;;;;;6.20;5.60;;;18.00;70.20;;;19.28;53.32;97739.75;5039819;28;20057;-60
2023/06/07 07:25:16;;;;;;;9.98;7.13;;;18.00;69.80;;;19.31;53.22;97743.91;5038115;28;20056;-60
2023/06/07 07:27:44;;;;;;;6.28;5.68;;;18.10;69.70;;;19.32;53.27;97733.94;5037405;28;20645;-61
2023/06/07 07:30:12;;;;;;;6.40;5.80;;;18.10;69.40;;;19.38;53.15;97735.75;5037182;28;20059;-60
2023/06/07 07:32:39;;;;;;;7.18;5.55;;;18.20;69.20;;;19.43;53.32;97731.38;5040170;28;20048;-60
2023/06/07 07:35:07;;;;;;;7.70;5.50;;;18.30;69.30;;;19.52;53.20;97739.22;5037185;28;20524;-60
2023/06/07 07:37:35;;;;;;;6.65;5.80;;;18.30;69.10;;;19.58;53.05;97739.19;5038064;28;20041;-60
2023/06/07 07:40:05;;;;;;;6.25;5.22;;;18.40;68.90;;;19.64;52.69;97734.81;5038913;28;20436;-60
2023/06/07 07:42:33;;;;;;;6.68;5.88;;;18.40;68.40;;;19.70;52.50;97738.47;5039579;28;20064;-60
2023/06/07 07:45:01;;;;;;;7.97;7.18;;;18.50;68.10;;;19.72;52.47;97739.16;5035488;28;20053;-60
2023/06/07 07:47:29;;;;;;;5.88;5.10;;;18.50;67.80;;;19.70;52.26;97739.34;5037316;28;20052;-59
2023/06/07 07:49:56;;;;;;;8.00;5.10;;;18.50;67.70;;;19.74;52.30;97734.34;5037401;28;20048;-60
2023/06/07 07:52:25;;;;;;;7.13;5.10;;;18.60;67.40;;;19.78;52.08;97733.69;5045300;28;20394;-60
2023/06/07 07:54:53;;;;;;;5.65;4.70;;;18.50;67.10;;;19.81;52.26;97735.13;5036265;28;20041;-60
2023/06/07 07:57:21;;;;;;;6.43;4.90;;;18.60;67.40;;;19.76;51.94;97738.50;5059288;28;20045;-61
2023/06/07 07:59:49;;;;;;;5.50;4.97;;;18.60;67.00;;;19.74;51.85;97728.97;5055706;28;20053;-60
2023/06/07 08:02:16;;;;;;;6.88;4.70;;;18.50;66.90;;;19.78;52.05;97735.56;5055851;28;20441;-61
2023/06/07 08:04:45;;;;;;;6.00;4.78;;;18.50;67.30;;;19.82;51.78;97734.91;5060725;28;20045;-60
2023/06/07 08:07:15;;;;;;;9.70;5.00;;;18.60;67.30;;;19.90;52.10;97733.81;5055804;28;20049;-60
2023/06/07 08:09:44;;;;;;;6.57;5.15;;;18.70;67.10;;;19.96;51.75;97729.41;5059593;28;20056;-61
2023/06/07 08:12:11;;;;;;;5.20;4.68;;;18.80;66.70;;;20.02;51.60;97726.66;5057076;28;20037;-61
2023/06/07 08:14:39;;;;;;;3.67;3.33;;;18.80;67.20;;;20.10;51.15;97733.66;5059700;28;20049;-60
2023/06/07 08:17:07;;;;;;;4.18;3.78;;;18.90;66.00;;;20.17;50.87;97731.75;5051510;28;20045;-60
2023/06/07 08:19:35;;;;;;;3.88;3.53;;;19.00;65.20;;;20.23;50.99;97730.84;5059816;28;20040;-61
2023/06/07 08:22:03;;;;;;;6.47;4.20;;;19.00;64.80;;;20.25;50.95;97734.16;5058654;28;20053;-60
2023/06/07 08:24:30;;;;;;;4.65;3.88;;;19.10;65.20;;;20.32;51.07;97723.31;5059354;28;20044;-60
2023/06/07 08:26:58;;;;;;;4.07;3.67;;;19.10;64.80;;;20.38;50.99;97727.00;5058704;28;20063;-60
2023/06/07 08:29:25;;;;;;;5.05;3.40;;;19.20;64.70;;;20.46;50.66;97724.81;5058692;28;20049;-59
2023/06/07 08:31:53;;;;;;;5.32;3.40;;;19.30;64.60;;;20.54;50.50;97731.00;5055127;28;20041;-60
2023/06/07 08:34:27;;;;;;;6.13;4.95;;;19.40;64.20;;;20.60;50.39;97730.13;5059393;28;20540;-60
2023/06/07 08:36:57;;;;;;;5.53;4.20;;;19.40;63.70;;;20.60;50.63;97730.13;5059195;28;20044;-60
2023/06/07 08:39:25;;;;;;;5.05;4.47;;;19.40;64.00;;;20.67;50.34;97728.19;5059192;28;20067;-60
2023/06/07 08:41:53;;;;;;;5.72;4.57;;;19.50;64.30;;;20.76;50.58;97724.16;5057493;28;20052;-60
2023/06/07 08:44:20;;;;;;;5.97;3.80;;;19.60;63.80;;;20.85;50.36;97724.66;5059369;28;20048;-60
2023/06/07 08:46:49;;;;;;;5.07;3.78;;;19.70;63.90;;;20.94;50.04;97727.91;5058712;28;20052;-59
2023/06/07 08:49:17;;;;;;;4.35;3.92;;;19.90;63.30;;;21.01;49.96;97729.50;5037647;28;20045;-60
2023/06/07 08:51:46;;;;;;;5.90;3.78;;;20.00;62.90;;;21.09;49.83;97731.03;5056548;28;20391;-59
2023/06/07 08:54:18;;;;;;;3.83;3.42;;;20.00;62.60;;;21.14;49.76;97736.63;5058022;28;20037;-60
2023/06/07 08:56:47;;;;;;;3.92;3.53;;;20.00;62.30;;;21.16;49.63;97737.22;5060849;28;20044;-59
2023/06/07 08:59:16;;;;;;;4.88;3.40;;;20.00;62.20;;;21.16;49.14;97734.50;5054952;28;20131;-59
2023/06/07 09:01:44;;;;;;;3.63;2.60;;;20.00;61.50;;;21.18;48.73;97734.28;5056463;28;20045;-59
2023/06/07 09:04:13;;;;;;;5.95;3.17;;;20.00;60.90;;;21.24;48.25;97730.66;5061322;28;20056;-60
2023/06/07 09:06:43;;;;;;;5.05;2.88;;;20.10;60.70;;;21.35;48.86;97731.78;5057993;28;20040;-59
2023/06/07 09:09:11;;;;;;;2.67;2.47;;;20.30;60.70;;;21.50;47.86;97737.66;5057820;28;20412;-58
2023/06/07 09:11:38;;;;;;;3.20;2.90;;;20.50;59.80;;;21.63;47.81;97736.63;5059867;28;20049;-59
2023/06/07 09:14:06;;;;;;;2.67;2.20;;;20.60;59.10;;;21.74;47.51;97740.44;5057880;28;20448;-59
2023/06/07 09:16:55;;;;;;;3.28;2.97;;;20.70;58.90;;;21.77;47.84;97742.69;5059420;28;20127;-59
2023/06/07 09:19:38;;;;;;;4.32;3.20;;;20.80;58.20;;;21.78;47.05;97736.22;5051484;28;20056;-59
2023/06/07 09:22:13;;;;;;;3.13;2.72;;;20.70;57.80;;;21.77;46.93;97750.81;5061250;28;20443;-60
2023/06/07 09:24:42;;;;;;;3.20;2.90;;;20.70;58.40;;;21.81;46.69;97738.47;5058414;28;20056;-59
2023/06/07 09:27:12;;;;;;;2.55;2.35;;;20.70;58.10;;;21.84;46.87;97735.28;5063366;28;20515;-59
2023/06/07 09:29:43;;;;;;;4.70;3.38;;;20.70;58.20;;;21.96;46.85;97748.88;5058679;28;20060;-59
2023/06/07 09:32:25;;;;;;;3.20;2.90;;;20.80;57.80;;;22.06;46.58;97748.31;5061949;28;20056;-59
2023/06/07 09:35:12;;;;;;;5.97;3.13;;;21.00;57.10;;;22.14;46.56;97743.38;5058636;28;20045;-59
2023/06/07 09:37:48;;;;;;;4.78;2.47;;;21.20;55.90;;;22.23;45.94;97743.84;5060661;28;20067;-59
2023/06/07 09:40:16;;;;;;;3.30;3.00;;;21.20;55.70;;;22.30;45.96;97738.38;5048509;28;20527;-59
2023/06/07 09:42:54;;;;;;;3.83;3.40;;;21.30;56.40;;;22.31;45.24;97737.28;5056849;28;20076;-59
2023/06/07 09:45:22;;;;;;;4.40;3.42;;;21.20;55.80;;;22.33;45.68;97738.72;5050784;28;20503;-59
2023/06/07 09:48:04;;;;;;;4.40;4.00;;;21.20;56.40;;;22.32;46.26;97737.06;5053762;28;20389;-59
2023/06/07 09:50:32;;;;;;;3.80;3.45;;;21.20;56.40;;;22.25;45.70;97732.81;5054636;28;20518;-59
2023/06/07 09:53:01;;;;;;;4.28;3.13;;;21.00;56.40;;;22.24;46.08;97734.66;5058368;28;20052;-59
2023/06/07 09:55:29;;;;;;;4.40;3.47;;;21.10;57.00;;;22.27;46.30;97736.13;5061172;28;20408;-60
2023/06/07 09:57:57;;;;;;;4.30;3.78;;;21.10;57.20;;;22.31;46.20;97731.88;5059558;28;20040;-59
2023/06/07 10:00:27;;;;;;;4.70;3.38;;;21.20;57.00;;;22.26;45.61;97729.88;5062869;28;20047;-60
2023/06/07 10:03:07;;;;;;;3.28;2.97;;;21.10;56.10;;;22.27;45.47;97727.97;5062533;28;20400;-61
2023/06/07 10:05:35;;;;;;;4.40;3.20;;;21.10;56.70;;;22.31;45.26;97734.59;5059407;28;20049;-61
2023/06/07 10:08:07;;;;;;;4.88;2.95;;;21.10;54.60;;;22.30;44.83;97720.19;5061179;28;20155;-61
2023/06/07 10:10:35;;;;;;;2.92;2.63;;;21.10;55.90;;;22.42;45.19;97721.03;5061178;28;20060;-61
2023/06/07 10:13:05;;;;;;;3.20;2.88;;;21.20;56.20;;;22.55;44.83;97727.28;5061091;28;20044;-62
2023/06/07 10:15:35;;;;;;;2.78;2.58;;;21.40;55.70;;;22.64;44.72;97714.19;5057872;28;20041;-60
2023/06/07 10:18:19;;;;;;;5.78;3.28;;;21.50;55.40;;;22.72;44.87;97714.66;5060613;28;20504;-61
2023/06/07 10:21:00;;;;;;;13.15;5.18;;;21.70;54.30;;;22.82;44.59;97719.50;5061309;28;20044;-61
2023/06/07 10:23:37;;;;;;;16.10;4.90;;;21.70;53.80;;;22.93;43.82;97715.91;5051450;28;20045;-62
2023/06/07 10:26:40;;;;;;;3.78;2.70;;;21.80;52.30;;;22.90;43.76;97713.69;5060352;28;20049;-62
2023/06/07 10:29:11;;;;;;;5.10;2.88;;;21.70;53.00;;;22.96;43.17;97714.63;5062427;28;20095;-62